createdAt,value
2023-11-29T00:01:51.879Z,12.18
2023-11-29T00:04:20.155Z,14.85
2023-11-29T00:06:48.577Z,16.83
2023-11-29T00:09:16.785Z,14.93
2023-11-29T00:11:45.963Z,14.80
2023-11-29T00:14:15.578Z,14.45
2023-11-29T00:16:44.109Z,15.70
2023-11-29T00:19:13.021Z,16.88
2023-11-29T00:21:44.634Z,15.40
2023-11-29T00:24:12.805Z,12.23
2023-11-29T00:26:41.037Z,15.80
2023-11-29T00:29:09.279Z,16.25
2023-11-29T00:31:38.899Z,17.80
2023-11-29T00:34:09.288Z,20.20
2023-11-29T00:36:37.729Z,19.15
2023-11-29T00:39:06.495Z,16.83
2023-11-29T00:41:34.746Z,18.33
2023-11-29T00:44:03.003Z,17.35
2023-11-29T00:46:31.268Z,16.15
2023-11-29T00:49:00.857Z,17.98
2023-11-29T00:51:29.117Z,17.48
2023-11-29T00:53:57.325Z,18.85
2023-11-29T00:56:25.463Z,19.00
2023-11-29T00:58:53.750Z,16.20
2023-11-29T01:01:21.976Z,17.20
2023-11-29T01:03:51.023Z,17.80
2023-11-29T01:06:22.100Z,18.40
2023-11-29T01:08:50.276Z,16.70
2023-11-29T01:11:19.407Z,17.70
2023-11-29T01:13:47.909Z,18.30
2023-11-29T01:16:16.073Z,18.52
2023-11-29T01:18:44.858Z,17.85
2023-11-29T01:21:15.116Z,19.80
2023-11-29T01:23:46.847Z,17.95
2023-11-29T01:26:15.160Z,19.13
2023-11-29T01:28:43.483Z,20.50
2023-11-29T01:31:13.842Z,20.30
2023-11-29T01:33:42.336Z,19.05
2023-11-29T01:36:11.601Z,18.70
2023-11-29T01:38:40.040Z,23.98
2023-11-29T01:41:09.653Z,21.65
2023-11-29T01:43:37.847Z,22.02
2023-11-29T01:46:07.019Z,21.15
2023-11-29T01:48:35.645Z,20.50
2023-11-29T01:51:03.942Z,22.17
2023-11-29T01:53:32.679Z,21.08
2023-11-29T01:56:00.888Z,18.55
2023-11-29T01:58:30.633Z,22.40
2023-11-29T02:01:00.476Z,23.02
2023-11-29T02:03:29.377Z,21.20
2023-11-29T02:05:58.130Z,21.33
2023-11-29T02:08:28.547Z,20.48
2023-11-29T02:10:57.216Z,22.27
2023-11-29T02:13:26.152Z,20.73
2023-11-29T02:15:56.266Z,20.90
2023-11-29T02:18:24.464Z,19.45
2023-11-29T02:20:53.052Z,15.00
2023-11-29T02:23:25.216Z,19.88
2023-11-29T02:25:55.844Z,20.35
2023-11-29T02:28:24.047Z,20.63
2023-11-29T02:30:52.237Z,21.70
2023-11-29T02:33:20.558Z,19.60
2023-11-29T02:35:48.881Z,21.23
2023-11-29T02:38:18.363Z,22.23
2023-11-29T02:43:16.078Z,22.65
2023-11-29T02:45:44.382Z,22.77
2023-11-29T02:48:12.804Z,22.05
2023-11-29T02:50:41.144Z,21.27
2023-11-29T02:53:09.408Z,20.55
2023-11-29T02:55:37.548Z,19.95
2023-11-29T02:58:05.986Z,22.40
2023-11-29T03:00:35.520Z,21.90
2023-11-29T03:05:31.688Z,24.15
2023-11-29T03:07:59.918Z,22.90
2023-11-29T03:10:28.057Z,24.30
2023-11-29T03:12:56.238Z,23.20
2023-11-29T03:15:24.401Z,23.42
2023-11-29T03:17:53.978Z,21.50
2023-11-29T03:20:22.205Z,21.45
2023-11-29T03:22:50.633Z,22.23
2023-11-29T03:25:18.882Z,20.80
2023-11-29T03:27:47.044Z,26.40
2023-11-29T03:30:15.834Z,20.35
2023-11-29T03:32:44.033Z,22.65
2023-11-29T03:35:13.705Z,21.58
2023-11-29T03:37:41.899Z,22.15
2023-11-29T03:40:10.863Z,22.88
2023-11-29T03:42:39.035Z,22.88
2023-11-29T03:45:07.836Z,22.45
2023-11-29T03:47:36.058Z,14.05
2023-11-29T03:50:04.386Z,18.98
2023-11-29T03:52:33.926Z,24.70
2023-11-29T03:57:32.788Z,14.63
2023-11-29T04:00:00.946Z,20.33
2023-11-29T04:02:29.255Z,21.98
2023-11-29T04:04:57.653Z,22.50
2023-11-29T04:07:25.916Z,21.20
2023-11-29T04:10:02.052Z,19.85
2023-11-29T04:12:34.025Z,24.27
2023-11-29T04:15:02.207Z,26.30
2023-11-29T04:17:30.480Z,28.55
2023-11-29T04:19:58.612Z,29.02
2023-11-29T04:22:26.809Z,25.25
2023-11-29T04:24:56.380Z,26.98
2023-11-29T04:27:24.559Z,166.52
2023-11-29T04:29:52.761Z,71.75
2023-11-29T04:32:21.061Z,139.25
2023-11-29T04:34:50.872Z,79.75
2023-11-29T04:37:19.301Z,50.90
2023-11-29T04:39:47.497Z,27.73
2023-11-29T04:42:17.017Z,28.88
2023-11-29T04:47:13.310Z,23.73
2023-11-29T04:49:41.740Z,25.42
2023-11-29T04:52:10.185Z,23.25
2023-11-29T04:54:38.417Z,24.57
2023-11-29T04:57:06.898Z,25.38
2023-11-29T04:59:38.486Z,28.23
2023-11-29T05:02:07.799Z,27.05
2023-11-29T05:04:35.973Z,24.38
2023-11-29T05:07:04.295Z,28.58
2023-11-29T05:09:32.595Z,26.50
2023-11-29T05:12:00.791Z,26.90
2023-11-29T05:14:29.067Z,25.35
2023-11-29T05:16:58.609Z,24.73
2023-11-29T05:21:54.827Z,27.08
2023-11-29T05:24:23.090Z,25.45
2023-11-29T05:26:51.351Z,25.95
2023-11-29T05:29:19.592Z,30.77
2023-11-29T05:31:47.760Z,30.83
2023-11-29T05:34:17.278Z,31.13
2023-11-29T05:36:45.488Z,27.75
2023-11-29T05:39:13.687Z,27.92
2023-11-29T05:41:42.012Z,28.48
2023-11-29T05:44:10.290Z,28.00
2023-11-29T05:46:38.580Z,34.78
2023-11-29T05:49:07.325Z,46.30
2023-11-29T05:54:05.932Z,42.08
2023-11-29T05:56:34.091Z,24.27
2023-11-29T05:59:02.781Z,26.42
2023-11-29T06:01:30.944Z,32.75
2023-11-29T06:03:59.155Z,29.63
2023-11-29T06:06:27.381Z,28.35
2023-11-29T06:08:57.115Z,25.15
2023-11-29T06:11:25.428Z,24.98
2023-11-29T06:13:53.658Z,21.35
2023-11-29T06:16:22.260Z,26.17
2023-11-29T06:18:51.047Z,23.92
2023-11-29T06:21:19.311Z,19.63
2023-11-29T06:23:47.977Z,23.00
2023-11-29T06:26:19.732Z,14.98
2023-11-29T06:28:48.604Z,16.25
2023-11-29T06:31:16.813Z,13.40
2023-11-29T06:33:44.978Z,13.23
2023-11-29T06:36:14.750Z,16.55
2023-11-29T06:38:44.082Z,23.40
2023-11-29T06:43:42.038Z,11.30
2023-11-29T06:46:10.230Z,10.98
2023-11-29T06:48:39.193Z,11.52
2023-11-29T06:51:07.891Z,11.30
2023-11-29T06:53:38.584Z,17.00
2023-11-29T06:56:07.760Z,15.32
2023-11-29T06:58:35.968Z,14.90
2023-11-29T07:01:07.354Z,22.02
2023-11-29T07:03:35.724Z,21.55
2023-11-29T07:06:03.916Z,26.02
2023-11-29T07:08:32.747Z,23.00
2023-11-29T07:11:05.238Z,23.73
2023-11-29T07:13:33.759Z,18.50
2023-11-29T07:16:02.123Z,23.58
2023-11-29T07:18:31.768Z,40.45
2023-11-29T07:20:59.960Z,46.92
2023-11-29T07:23:28.197Z,39.22
2023-11-29T07:25:56.696Z,31.58
2023-11-29T07:28:25.734Z,60.47
2023-11-29T07:30:53.946Z,40.90
2023-11-29T07:33:22.267Z,30.85
2023-11-29T07:35:51.936Z,26.02
2023-11-29T07:38:20.110Z,32.80
2023-11-29T07:40:48.302Z,28.52
2023-11-29T07:43:16.571Z,28.55
2023-11-29T07:45:44.779Z,28.48
2023-11-29T07:48:13.047Z,28.63
2023-11-29T07:50:41.272Z,30.83
2023-11-29T07:53:10.866Z,28.60
2023-11-29T07:58:07.204Z,29.52
2023-11-29T08:00:35.549Z,22.33
2023-11-29T08:03:03.787Z,21.30
2023-11-29T08:05:32.009Z,18.13
2023-11-29T08:08:00.257Z,17.85
2023-11-29T08:10:31.019Z,19.17
2023-11-29T08:12:59.880Z,17.73
2023-11-29T08:15:29.537Z,17.38
2023-11-29T08:17:58.014Z,21.20
2023-11-29T08:20:26.257Z,14.67
2023-11-29T08:22:54.434Z,18.73
2023-11-29T08:25:25.399Z,21.38
2023-11-29T08:27:55.073Z,19.27
2023-11-29T08:30:23.276Z,17.33
2023-11-29T08:32:51.677Z,16.88
2023-11-29T08:35:19.903Z,18.33
2023-11-29T08:37:49.721Z,14.63
2023-11-29T08:40:18.264Z,22.35
2023-11-29T08:42:46.549Z,21.02
2023-11-29T08:45:16.165Z,17.70
2023-11-29T08:47:44.407Z,21.48
2023-11-29T08:50:12.637Z,19.60
2023-11-29T08:52:43.599Z,16.80
2023-11-29T08:55:12.122Z,21.55
2023-11-29T08:57:41.065Z,24.92
2023-11-29T09:00:10.489Z,23.30
2023-11-29T09:07:37.645Z,13.82
2023-11-29T09:10:07.578Z,13.00
2023-11-29T09:12:36.988Z,13.77
2023-11-29T09:15:07.583Z,12.43
2023-11-29T09:17:36.072Z,11.43
2023-11-29T09:20:06.891Z,14.55
2023-11-29T09:22:35.105Z,13.15
2023-11-29T09:25:06.397Z,13.50
2023-11-29T09:27:34.805Z,13.30
2023-11-29T09:30:03.550Z,11.98
2023-11-29T09:32:33.509Z,10.40
2023-11-29T09:35:01.942Z,15.63
2023-11-29T09:37:31.612Z,11.57
2023-11-29T09:39:59.893Z,11.80
2023-11-29T09:42:30.653Z,14.95
2023-11-29T09:45:00.911Z,9.40
2023-11-29T09:47:29.298Z,7.97
2023-11-29T09:50:00.303Z,9.85
2023-11-29T09:52:28.650Z,10.65
2023-11-29T09:54:58.402Z,10.00
2023-11-29T09:57:26.600Z,9.63
2023-11-29T09:59:57.028Z,8.43
2023-11-29T10:02:24.518Z,9.02
2023-11-29T10:04:53.105Z,8.32
2023-11-29T10:07:21.535Z,7.43
2023-11-29T10:09:49.680Z,8.02
2023-11-29T10:12:19.389Z,9.02
2023-11-29T10:17:17.728Z,8.30
2023-11-29T10:19:47.598Z,8.20
2023-11-29T10:22:17.139Z,7.38
2023-11-29T10:24:45.978Z,10.73
2023-11-29T10:27:14.576Z,9.70
2023-11-29T10:29:44.364Z,8.90
2023-11-29T10:32:12.904Z,7.80
2023-11-29T10:34:41.596Z,8.43
2023-11-29T10:37:10.544Z,7.30
2023-11-29T10:39:41.241Z,6.93
2023-11-29T10:42:10.570Z,7.05
2023-11-29T10:44:40.832Z,6.97
2023-11-29T10:47:19.300Z,5.85
2023-11-29T10:49:50.708Z,6.05
2023-11-29T10:52:20.223Z,6.35
2023-11-29T10:57:26.592Z,5.50
2023-11-29T11:00:05.893Z,4.38
2023-11-29T11:02:35.790Z,4.57
2023-11-29T11:05:07.079Z,5.00
2023-11-29T11:07:40.306Z,5.72
2023-11-29T11:10:12.942Z,3.75
2023-11-29T11:12:42.298Z,4.18
2023-11-29T11:18:10.092Z,3.72
2023-11-29T11:20:41.445Z,3.17
2023-11-29T11:23:09.884Z,3.15
2023-11-29T11:25:38.261Z,3.23
2023-11-29T11:28:06.431Z,3.60
2023-11-29T11:30:34.759Z,3.47
2023-11-29T11:33:04.553Z,4.13
2023-11-29T11:35:39.516Z,3.60
2023-11-29T11:38:10.029Z,3.22
2023-11-29T11:40:40.410Z,3.97
2023-11-29T11:43:10.436Z,6.20
2023-11-29T11:45:39.010Z,4.30
2023-11-29T11:48:09.886Z,5.28
2023-11-29T11:50:38.358Z,5.13
2023-11-29T11:53:07.536Z,4.63
2023-11-29T11:55:40.657Z,4.00
2023-11-29T11:58:10.684Z,4.10
2023-11-29T12:00:40.312Z,4.10
2023-11-29T12:03:10.977Z,3.75
2023-11-29T12:05:40.828Z,3.50
2023-11-29T12:08:10.463Z,3.00
2023-11-29T12:10:39.679Z,2.92
2023-11-29T12:15:36.418Z,3.70
2023-11-29T12:18:13.609Z,3.47
2023-11-29T12:20:43.993Z,3.42
2023-11-29T12:23:15.178Z,5.28
2023-11-29T12:25:44.973Z,7.03
2023-11-29T12:28:14.949Z,8.90
2023-11-29T12:30:44.004Z,4.50
2023-11-29T12:33:15.503Z,3.88
2023-11-29T12:35:43.974Z,5.30
2023-11-29T12:38:12.277Z,4.53
2023-11-29T12:40:40.641Z,4.18
2023-11-29T12:43:08.900Z,4.93
2023-11-29T12:45:37.051Z,6.25
2023-11-29T12:48:05.965Z,5.75
2023-11-29T12:50:36.186Z,10.65
2023-11-29T12:53:05.516Z,6.63
2023-11-29T12:55:33.725Z,8.13
2023-11-29T12:58:01.968Z,5.55
2023-11-29T13:00:30.187Z,5.35
2023-11-29T13:02:59.052Z,5.13
2023-11-29T13:05:27.447Z,5.25
2023-11-29T13:07:57.015Z,5.28
2023-11-29T13:12:53.187Z,5.00
2023-11-29T13:15:21.444Z,4.53
2023-11-29T13:17:49.796Z,4.90
2023-11-29T13:20:17.987Z,4.78
2023-11-29T13:22:46.276Z,5.35
2023-11-29T13:25:18.596Z,4.97
2023-11-29T13:27:47.107Z,4.50
2023-11-29T13:30:15.974Z,7.20
2023-11-29T13:32:44.301Z,4.15
2023-11-29T13:35:12.740Z,4.43
2023-11-29T13:37:41.059Z,4.13
2023-11-29T13:40:11.112Z,3.90
2023-11-29T13:42:41.758Z,4.93
2023-11-29T13:45:11.163Z,4.13
2023-11-29T13:47:40.758Z,4.82
2023-11-29T13:50:09.608Z,6.03
2023-11-29T13:52:38.300Z,4.80
2023-11-29T13:55:07.803Z,4.22
2023-11-29T13:57:37.454Z,5.63
2023-11-29T14:02:36.348Z,9.32
2023-11-29T14:05:05.132Z,8.23
2023-11-29T14:07:34.472Z,7.25
2023-11-29T14:10:03.063Z,7.55
2023-11-29T14:12:31.280Z,11.77
2023-11-29T14:14:59.463Z,15.15
2023-11-29T14:17:29.232Z,22.92
2023-11-29T14:19:58.546Z,18.77
2023-11-29T14:22:27.925Z,18.63
2023-11-29T14:24:56.713Z,14.98
2023-11-29T14:27:25.448Z,21.45
2023-11-29T14:29:54.839Z,22.55
2023-11-29T14:32:36.662Z,14.07
2023-11-29T14:35:07.019Z,13.32
2023-11-29T14:37:36.537Z,9.25
2023-11-29T14:40:06.238Z,6.95
2023-11-29T14:42:34.542Z,8.68
2023-11-29T14:45:04.261Z,7.68
2023-11-29T14:47:33.962Z,7.32
2023-11-29T14:50:02.512Z,11.10
2023-11-29T14:52:30.822Z,9.93
2023-11-29T14:54:59.115Z,14.60
2023-11-29T14:57:28.898Z,15.40
2023-11-29T14:59:57.242Z,16.90
2023-11-29T15:02:25.403Z,16.70
2023-11-29T15:04:56.249Z,17.45
2023-11-29T15:09:52.844Z,20.95
2023-11-29T15:12:21.227Z,23.97
2023-11-29T15:14:49.523Z,27.98
2023-11-29T15:17:18.042Z,30.33
2023-11-29T15:19:46.866Z,29.75
2023-11-29T15:22:16.603Z,40.85
2023-11-29T15:24:44.831Z,54.08
2023-11-29T15:27:13.683Z,50.08
2023-11-29T15:29:43.040Z,25.65
2023-11-29T15:32:12.544Z,26.63
2023-11-29T15:34:40.982Z,17.27
2023-11-29T15:37:09.445Z,18.17
2023-11-29T15:39:40.941Z,17.73
2023-11-29T15:42:10.652Z,12.77
2023-11-29T15:47:08.261Z,20.15
2023-11-29T15:49:36.583Z,16.98
2023-11-29T16:30:35.303Z,18.23
2023-11-29T16:33:04.126Z,16.67
2023-11-29T16:35:32.390Z,22.10
2023-11-29T16:38:00.585Z,23.45
2023-11-29T16:40:28.716Z,21.83
2023-11-29T16:46:49.179Z,17.83
2023-11-29T16:53:12.274Z,12.38
2023-11-29T16:59:41.818Z,75.63
2023-11-29T17:06:03.655Z,25.00
2023-11-29T17:12:22.603Z,19.23
2023-11-29T17:18:41.724Z,17.38
2023-11-29T17:25:02.503Z,31.13
2023-11-29T17:35:14.186Z,26.15
2023-11-29T17:41:24.644Z,18.40
2023-11-29T17:47:33.617Z,23.63
2023-11-29T17:53:42.728Z,18.42
2023-11-29T17:59:53.792Z,20.92
2023-11-29T18:06:03.159Z,26.45
2023-11-29T18:12:12.256Z,23.42
2023-11-29T18:18:23.011Z,19.05
2023-11-29T18:24:32.239Z,25.55
2023-11-29T18:30:41.150Z,29.52
2023-11-29T18:36:51.369Z,17.83
2023-11-29T18:46:51.120Z,31.30
2023-11-29T18:53:11.773Z,24.00
2023-11-29T18:59:30.819Z,27.73
2023-11-29T19:05:50.136Z,23.83
2023-11-29T19:12:10.843Z,23.67
2023-11-29T19:18:29.724Z,22.05
2023-11-29T19:24:48.572Z,25.73
2023-11-29T19:34:59.812Z,20.42
2023-11-29T19:40:50.058Z,25.38
2023-11-29T19:47:07.351Z,20.05
2023-11-29T19:53:23.433Z,25.50
2023-11-29T19:59:32.342Z,21.25
2023-11-29T20:05:41.189Z,20.85
2023-11-29T20:11:51.552Z,23.50
2023-11-29T20:18:00.818Z,29.30
2023-11-29T20:24:09.628Z,33.33
2023-11-29T20:30:20.050Z,31.73
2023-11-29T20:36:29.155Z,28.77
2023-11-29T20:42:38.329Z,26.15
2023-11-29T20:48:48.585Z,26.30
2023-11-29T20:54:38.819Z,30.17
2023-11-29T21:00:47.678Z,26.80
2023-11-29T21:06:58.507Z,28.08
2023-11-29T21:13:09.604Z,31.88
2023-11-29T21:19:20.332Z,35.92
2023-11-29T21:25:31.881Z,42.80
2023-11-29T21:35:31.857Z,39.15
2023-11-29T21:41:52.479Z,24.77
2023-11-29T21:48:13.141Z,25.55
2023-11-29T21:54:33.120Z,22.95
2023-11-29T22:00:53.438Z,27.85
2023-11-29T22:07:12.090Z,27.92
2023-11-29T22:13:30.788Z,26.75
2023-11-29T22:19:50.899Z,24.48
2023-11-29T22:25:50.819Z,19.85
2023-11-29T22:32:09.660Z,15.55
2023-11-29T22:38:29.707Z,17.90
2023-11-29T22:44:49.310Z,20.58
2023-11-29T22:51:08.797Z,23.40
2023-11-29T22:57:29.867Z,19.23
2023-11-29T23:03:49.227Z,8.23
2023-11-29T23:10:09.536Z,5.50
2023-11-29T23:16:29.521Z,5.07
2023-11-29T23:22:48.378Z,4.80
2023-11-29T23:29:07.460Z,16.60
2023-11-29T23:39:18.628Z,15.40
2023-11-29T23:45:31.387Z,15.38
2023-11-29T23:51:40.206Z,13.07
2023-11-29T23:57:50.570Z,13.38
